Airport ICAO


21:54 UTC

9°C

Clear skies


An affordable passengers' Moving Map for your aircraft. Made for the iPad and the iPhone
More information here

LFPG Charles De Gaulle


Paris FRANCE   VFR CAVOK


METAR LFPG 132130Z 18006KT CAVOK 09/07 Q1029 NOSIG 0h24min

TAF LFPG 131700Z 1318/1424 21010KT CAVOK TX13/1415Z TN05/1406Z BECMG 1323/1401 12004KT 3000 BR BECMG 1402/1404 1500 BR BKN002 PROB40 1402/1410 0500 FG VV/// BECMG 1411/1413 6000 NSW BKN007 BECMG 1413/1415 SCT012 BECMG 1419/1421 3000 BR 4h54min





NOTAMS

OPEN